Time;durP1;ratioP1;P1;durP2;ratioP2;P2;SDS_P1;SDS_P2;PMS_P1;PMS_P2;Temp;Humidity;BMP_temperature;BMP_pressure;BME280_temperature;BME280_humidity;BME280_pressure;Samples;Min_cycle;Max_cycle;Signal;HPM_P1;HPM_P2
2023/12/07 00:02:08;;;;;;;17.75;9.93;;;;;;;;;;5043577;28;20433;-68
2023/12/07 00:04:35;;;;;;;18.00;9.82;;;;;;;;;;5031316;28;20432;-69
2023/12/07 00:07:03;;;;;;;15.63;9.50;;;;;;;;;;5052180;28;20927;-68
2023/12/07 00:09:32;;;;;;;16.55;10.15;;;;;;;;;;5040653;28;21520;-68
2023/12/07 00:11:59;;;;;;;17.20;10.52;;;;;;;;;;5045768;28;20437;-68
2023/12/07 00:14:26;;;;;;;18.20;10.25;;;;;;;;;;5043226;28;20440;-68
2023/12/07 00:16:54;;;;;;;18.95;10.05;;;;;;;;;;5039332;28;20454;-68
2023/12/07 00:19:21;;;;;;;23.75;11.13;;;;;;;;;;5058995;28;20427;-68
2023/12/07 00:21:48;;;;;;;23.17;11.07;;;;;;;;;;5049429;28;20908;-68
2023/12/07 00:24:15;;;;;;;23.50;11.88;;;;;;;;;;5029446;28;20438;-68
2023/12/07 00:26:42;;;;;;;20.23;11.82;;;;;;;;;;5052780;28;20437;-68
2023/12/07 00:29:10;;;;;;;22.95;11.43;;;;;;;;;;5052727;28;21239;-68
2023/12/07 00:31:37;;;;;;;23.08;11.30;;;;;;;;;;5046655;28;20440;-68
2023/12/07 00:34:05;;;;;;;22.05;11.25;;;;;;;;;;5033186;28;20576;-68
2023/12/07 00:36:33;;;;;;;21.33;11.20;;;;;;;;;;5048037;28;20432;-68
2023/12/07 00:39:00;;;;;;;22.88;11.00;;;;;;;;;;5050271;28;21005;-68
2023/12/07 00:41:28;;;;;;;22.23;11.13;;;;;;;;;;5032974;28;20429;-68
2023/12/07 00:43:55;;;;;;;22.88;10.77;;;;;;;;;;5047785;28;20453;-68
2023/12/07 00:46:23;;;;;;;19.80;10.85;;;;;;;;;;5041506;28;20502;-69
2023/12/07 00:48:50;;;;;;;20.73;10.70;;;;;;;;;;5041447;28;21066;-69
2023/12/07 00:51:17;;;;;;;22.35;11.75;;;;;;;;;;5035440;28;20924;-69
2023/12/07 00:53:44;;;;;;;19.75;11.55;;;;;;;;;;5052196;28;20759;-69
2023/12/07 00:56:11;;;;;;;20.53;11.33;;;;;;;;;;5041712;28;20428;-69
2023/12/07 00:58:39;;;;;;;20.08;11.25;;;;;;;;;;5037455;28;20467;-69
2023/12/07 01:01:06;;;;;;;20.00;10.85;;;;;;;;;;5044922;28;20460;-68
2023/12/07 01:03:33;;;;;;;23.70;10.48;;;;;;;;;;5042127;28;20532;-68
2023/12/07 01:06:00;;;;;;;24.90;11.23;;;;;;;;;;5046546;28;20448;-68
2023/12/07 01:08:28;;;;;;;22.65;10.77;;;;;;;;;;5044251;28;20539;-68
2023/12/07 01:10:55;;;;;;;20.75;11.20;;;;;;;;;;5041417;28;20508;-68
2023/12/07 01:13:23;;;;;;;23.20;11.27;;;;;;;;;;5043732;28;20832;-68
2023/12/07 01:15:51;;;;;;;22.35;11.63;;;;;;;;;;5047276;28;20443;-68
2023/12/07 01:18:18;;;;;;;24.40;12.23;;;;;;;;;;5038817;28;20552;-68
2023/12/07 01:20:45;;;;;;;26.02;12.02;;;;;;;;;;5040997;28;20433;-68
2023/12/07 01:23:12;;;;;;;22.55;11.07;;;;;;;;;;5044906;28;20429;-68
2023/12/07 01:25:44;;;;;;;29.38;11.73;;;;;;;;;;5036662;28;20446;-68
2023/12/07 01:28:11;;;;;;;23.75;11.20;;;;;;;;;;5036181;28;20492;-69
2023/12/07 01:30:38;;;;;;;25.27;10.98;;;;;;;;;;5026930;28;20465;-69
2023/12/07 01:33:06;;;;;;;22.13;11.40;;;;;;;;;;5045943;28;20440;-68
2023/12/07 01:35:33;;;;;;;22.55;11.77;;;;;;;;;;5050525;28;20456;-68
2023/12/07 01:38:00;;;;;;;26.77;10.82;;;;;;;;;;5039172;28;20522;-69
2023/12/07 01:40:27;;;;;;;21.73;10.98;;;;;;;;;;5047463;28;20479;-68
2023/12/07 01:42:54;;;;;;;23.60;11.35;;;;;;;;;;5046795;28;20781;-69
2023/12/07 01:45:22;;;;;;;24.80;10.98;;;;;;;;;;5058887;28;20506;-69
2023/12/07 01:47:50;;;;;;;23.13;10.82;;;;;;;;;;5048368;28;20437;-68
2023/12/07 01:50:23;;;;;;;19.77;10.70;;;;;;;;;;5046562;28;20429;-68
2023/12/07 01:52:53;;;;;;;25.55;11.20;;;;;;;;;;5044642;28;20525;-68
2023/12/07 01:55:21;;;;;;;28.08;12.27;;;;;;;;;;5038067;28;20438;-69
2023/12/07 01:57:49;;;;;;;27.97;11.83;;;;;;;;;;5034994;28;20440;-68
2023/12/07 02:00:16;;;;;;;28.03;12.27;;;;;;;;;;5041418;28;20436;-69
2023/12/07 02:02:45;;;;;;;29.45;12.88;;;;;;;;;;5045962;28;21162;-68
2023/12/07 02:05:13;;;;;;;32.47;13.15;;;;;;;;;;5041476;28;20441;-69
2023/12/07 02:07:41;;;;;;;35.40;14.05;;;;;;;;;;5045434;28;20457;-69
2023/12/07 02:10:09;;;;;;;38.83;14.63;;;;;;;;;;5048425;28;20494;-68
2023/12/07 02:12:36;;;;;;;40.85;15.52;;;;;;;;;;5048286;28;20852;-69
2023/12/07 02:15:04;;;;;;;42.50;15.70;;;;;;;;;;5037297;28;20454;-69
2023/12/07 02:17:36;;;;;;;35.35;14.18;;;;;;;;;;5038624;28;20485;-69
2023/12/07 02:20:10;;;;;;;30.52;12.85;;;;;;;;;;5029797;28;20427;-69
2023/12/07 02:22:39;;;;;;;36.05;14.00;;;;;;;;;;5046642;28;20454;-68
2023/12/07 02:25:08;;;;;;;32.30;13.07;;;;;;;;;;5038628;28;20876;-69
2023/12/07 02:27:35;;;;;;;34.95;13.85;;;;;;;;;;5042128;28;20813;-69
2023/12/07 02:30:04;;;;;;;40.20;14.60;;;;;;;;;;5038353;28;20511;-69
2023/12/07 02:32:31;;;;;;;39.25;15.82;;;;;;;;;;5046632;28;20931;-69
2023/12/07 02:34:58;;;;;;;39.63;15.15;;;;;;;;;;5047339;28;20461;-69
2023/12/07 02:37:27;;;;;;;41.83;16.15;;;;;;;;;;5046644;28;20910;-69
2023/12/07 02:39:56;;;;;;;40.35;15.55;;;;;;;;;;5038935;28;20573;-69
2023/12/07 02:42:24;;;;;;;36.70;14.63;;;;;;;;;;5027496;28;20427;-69
2023/12/07 02:44:53;;;;;;;32.58;13.98;;;;;;;;;;5037187;28;20516;-69
2023/12/07 02:47:20;;;;;;;33.83;13.68;;;;;;;;;;5037753;28;20500;-69
2023/12/07 02:49:47;;;;;;;34.67;14.47;;;;;;;;;;5023226;28;20500;-69
2023/12/07 02:52:14;;;;;;;32.13;13.70;;;;;;;;;;5039271;28;20423;-69
2023/12/07 02:54:42;;;;;;;32.13;13.53;;;;;;;;;;5049614;28;21103;-69
2023/12/07 02:57:09;;;;;;;32.92;13.75;;;;;;;;;;5043262;28;20462;-69
2023/12/07 02:59:36;;;;;;;26.42;12.98;;;;;;;;;;5046921;28;20445;-69
2023/12/07 03:02:04;;;;;;;29.08;12.90;;;;;;;;;;5046986;28;20823;-69
2023/12/07 03:04:31;;;;;;;34.45;12.93;;;;;;;;;;5042374;28;20479;-69
2023/12/07 03:06:58;;;;;;;28.80;12.45;;;;;;;;;;5047110;28;20499;-69
2023/12/07 03:09:25;;;;;;;25.90;12.15;;;;;;;;;;5044348;28;20551;-70
2023/12/07 03:11:53;;;;;;;37.13;13.35;;;;;;;;;;5034966;28;20437;-69
2023/12/07 03:14:20;;;;;;;30.40;13.73;;;;;;;;;;5049799;28;20433;-69
2023/12/07 03:16:47;;;;;;;30.25;13.55;;;;;;;;;;5035777;28;20421;-69
2023/12/07 03:19:15;;;;;;;31.73;13.35;;;;;;;;;;5044180;28;20498;-69
2023/12/07 03:21:42;;;;;;;34.27;14.50;;;;;;;;;;5037505;28;20589;-69
2023/12/07 03:24:10;;;;;;;37.78;15.13;;;;;;;;;;5043155;28;20892;-69
2023/12/07 03:26:38;;;;;;;42.47;15.95;;;;;;;;;;5030247;28;20463;-69
2023/12/07 03:29:05;;;;;;;46.90;15.93;;;;;;;;;;5053295;28;20444;-70
2023/12/07 03:31:32;;;;;;;41.03;16.08;;;;;;;;;;5035750;28;20425;-69
2023/12/07 03:34:01;;;;;;;40.78;15.35;;;;;;;;;;5042547;28;20425;-69
2023/12/07 03:36:28;;;;;;;40.60;14.90;;;;;;;;;;5044019;28;20442;-69
2023/12/07 03:38:58;;;;;;;32.20;13.82;;;;;;;;;;5013638;28;20436;-70
2023/12/07 03:41:25;;;;;;;30.27;13.70;;;;;;;;;;5049560;28;20428;-69
2023/12/07 03:43:52;;;;;;;27.83;14.20;;;;;;;;;;5050944;28;22285;-70
2023/12/07 03:46:20;;;;;;;26.45;13.25;;;;;;;;;;5054632;28;20899;-69
2023/12/07 03:48:47;;;;;;;24.58;12.75;;;;;;;;;;5047713;28;20438;-69
2023/12/07 03:51:16;;;;;;;27.08;13.43;;;;;;;;;;5056771;28;20431;-70
2023/12/07 03:53:43;;;;;;;23.23;13.73;;;;;;;;;;5049220;28;20514;-69
2023/12/07 03:56:11;;;;;;;26.88;13.35;;;;;;;;;;5052202;28;20429;-69
2023/12/07 03:58:38;;;;;;;24.02;13.70;;;;;;;;;;5048949;28;21147;-70
2023/12/07 04:01:06;;;;;;;27.83;13.55;;;;;;;;;;5042011;28;20479;-70
2023/12/07 04:03:34;;;;;;;24.85;13.25;;;;;;;;;;5043932;28;20429;-70
2023/12/07 04:06:02;;;;;;;22.25;12.10;;;;;;;;;;5029629;28;20454;-70
2023/12/07 04:08:29;;;;;;;22.40;12.63;;;;;;;;;;5045837;28;20923;-70
2023/12/07 04:10:56;;;;;;;25.35;13.30;;;;;;;;;;5035880;28;20521;-70
2023/12/07 04:13:23;;;;;;;23.50;11.90;;;;;;;;;;5050556;28;20987;-70
2023/12/07 04:15:51;;;;;;;26.30;13.10;;;;;;;;;;5046959;28;20981;-70
2023/12/07 04:18:18;;;;;;;25.73;13.75;;;;;;;;;;5053350;28;20436;-70
2023/12/07 04:20:46;;;;;;;29.92;14.43;;;;;;;;;;5042520;28;20433;-70
2023/12/07 04:23:13;;;;;;;30.30;14.55;;;;;;;;;;5040164;28;20488;-70
2023/12/07 04:25:40;;;;;;;28.08;15.27;;;;;;;;;;5048283;28;20509;-70
2023/12/07 04:28:08;;;;;;;30.17;14.65;;;;;;;;;;5041251;28;20428;-70
2023/12/07 04:30:35;;;;;;;27.73;14.33;;;;;;;;;;5031478;28;20785;-70
2023/12/07 04:33:02;;;;;;;27.13;13.75;;;;;;;;;;5049346;28;20896;-70
2023/12/07 04:35:30;;;;;;;23.43;13.70;;;;;;;;;;5030225;28;20452;-69
2023/12/07 04:37:57;;;;;;;26.27;13.20;;;;;;;;;;5040521;28;20499;-70
2023/12/07 04:40:25;;;;;;;25.63;13.23;;;;;;;;;;5050687;28;20429;-70
2023/12/07 04:42:52;;;;;;;26.55;13.90;;;;;;;;;;5047505;28;20512;-70
2023/12/07 04:45:20;;;;;;;23.60;13.23;;;;;;;;;;5040891;28;20453;-70
2023/12/07 04:47:47;;;;;;;20.20;11.90;;;;;;;;;;5034742;28;20437;-70
2023/12/07 04:50:14;;;;;;;22.45;11.95;;;;;;;;;;5055807;28;20478;-70
2023/12/07 04:52:42;;;;;;;21.05;11.82;;;;;;;;;;5051795;28;21024;-70
2023/12/07 04:55:09;;;;;;;22.63;12.40;;;;;;;;;;5046873;28;20431;-70
2023/12/07 04:57:36;;;;;;;22.20;11.95;;;;;;;;;;5046507;28;20460;-70
2023/12/07 05:00:09;;;;;;;20.20;11.63;;;;;;;;;;5051982;28;20429;-70
2023/12/07 05:02:37;;;;;;;19.57;12.43;;;;;;;;;;5046339;28;20456;-70
2023/12/07 05:05:05;;;;;;;21.65;11.63;;;;;;;;;;5022534;28;20429;-70
2023/12/07 05:07:32;;;;;;;23.17;12.55;;;;;;;;;;5050120;28;20537;-70
2023/12/07 05:09:59;;;;;;;25.73;13.83;;;;;;;;;;5046070;28;21266;-70
2023/12/07 05:12:27;;;;;;;27.95;13.43;;;;;;;;;;5058108;28;21054;-70
2023/12/07 05:14:54;;;;;;;23.35;13.45;;;;;;;;;;5032113;28;20435;-70
2023/12/07 05:17:21;;;;;;;27.77;14.40;;;;;;;;;;5025667;28;20555;-70
2023/12/07 05:19:48;;;;;;;25.38;13.20;;;;;;;;;;5046669;28;20429;-70
2023/12/07 05:22:16;;;;;;;26.35;13.05;;;;;;;;;;5047586;28;20429;-70
2023/12/07 05:24:43;;;;;;;22.33;12.00;;;;;;;;;;5046535;28;20520;-70
2023/12/07 05:27:10;;;;;;;23.48;11.95;;;;;;;;;;5040900;28;20567;-70
2023/12/07 05:29:38;;;;;;;24.08;12.70;;;;;;;;;;5041216;28;20514;-70
2023/12/07 05:32:06;;;;;;;24.23;12.57;;;;;;;;;;5044900;28;20506;-70
2023/12/07 05:34:35;;;;;;;24.13;13.40;;;;;;;;;;5043175;28;20429;-70
2023/12/07 05:37:04;;;;;;;22.33;12.93;;;;;;;;;;5043694;28;20433;-70
2023/12/07 05:39:31;;;;;;;22.33;12.10;;;;;;;;;;5044503;28;20517;-70
2023/12/07 05:41:58;;;;;;;24.60;13.00;;;;;;;;;;5030120;28;20435;-70
2023/12/07 05:44:25;;;;;;;20.17;12.10;;;;;;;;;;5044893;28;20429;-70
2023/12/07 05:46:53;;;;;;;21.67;12.25;;;;;;;;;;5017052;28;20446;-70
2023/12/07 05:49:22;;;;;;;22.38;12.02;;;;;;;;;;5032850;28;20425;-70
2023/12/07 05:51:49;;;;;;;22.77;12.57;;;;;;;;;;5024688;28;20446;-70
2023/12/07 05:54:16;;;;;;;20.67;12.25;;;;;;;;;;5027533;28;21149;-70
2023/12/07 05:56:44;;;;;;;23.15;12.98;;;;;;;;;;5066199;28;20424;-70
2023/12/07 05:59:11;;;;;;;28.45;14.02;;;;;;;;;;5065501;28;20423;-70
2023/12/07 06:01:39;;;;;;;27.40;14.45;;;;;;;;;;5061334;28;20424;-70
2023/12/07 06:04:09;;;;;;;24.70;13.38;;;;;;;;;;5055405;28;20423;-70
2023/12/07 06:06:36;;;;;;;22.88;13.35;;;;;;;;;;5043812;28;20440;-68
2023/12/07 06:09:05;;;;;;;24.88;13.18;;;;;;;;;;5047193;28;20632;-68
2023/12/07 06:11:33;;;;;;;24.58;13.65;;;;;;;;;;5048166;28;20436;-69
2023/12/07 06:14:01;;;;;;;23.50;12.90;;;;;;;;;;5049569;28;20437;-68
2023/12/07 06:16:28;;;;;;;26.33;13.40;;;;;;;;;;5055537;28;20437;-68
2023/12/07 06:18:55;;;;;;;23.65;13.48;;;;;;;;;;5050954;28;20425;-69
2023/12/07 06:21:25;;;;;;;25.30;15.07;;;;;;;;;;5054708;28;20824;-69
2023/12/07 06:23:52;;;;;;;25.30;13.23;;;;;;;;;;5038458;28;20834;-68
2023/12/07 06:26:20;;;;;;;30.55;14.43;;;;;;;;;;5033132;28;20959;-69
2023/12/07 06:28:47;;;;;;;29.08;15.10;;;;;;;;;;5054370;28;20463;-69
2023/12/07 06:31:15;;;;;;;30.13;15.53;;;;;;;;;;5055013;28;20968;-69
2023/12/07 06:33:43;;;;;;;26.83;14.60;;;;;;;;;;5060734;28;20432;-69
2023/12/07 06:36:11;;;;;;;31.05;14.73;;;;;;;;;;5044825;28;20856;-69
2023/12/07 06:38:38;;;;;;;29.63;14.30;;;;;;;;;;5057616;28;20931;-69
2023/12/07 06:41:05;;;;;;;28.00;14.23;;;;;;;;;;5059320;28;20510;-69
2023/12/07 06:43:33;;;;;;;29.42;13.45;;;;;;;;;;5068392;28;20806;-69
2023/12/07 06:46:00;;;;;;;27.90;13.52;;;;;;;;;;5055260;28;20431;-69
2023/12/07 06:48:27;;;;;;;33.87;17.40;;;;;;;;;;5060061;28;20427;-69
2023/12/07 06:50:54;;;;;;;33.95;18.17;;;;;;;;;;5047756;28;20433;-69
2023/12/07 06:53:21;;;;;;;33.75;15.70;;;;;;;;;;5041454;28;20433;-69
2023/12/07 06:55:49;;;;;;;30.92;16.45;;;;;;;;;;5056281;28;20757;-69
2023/12/07 06:58:16;;;;;;;28.90;14.73;;;;;;;;;;5068534;28;20427;-69
2023/12/07 07:00:43;;;;;;;34.47;16.52;;;;;;;;;;5038691;28;20426;-69
2023/12/07 07:03:11;;;;;;;32.57;15.77;;;;;;;;;;5034110;28;20495;-69
2023/12/07 07:05:38;;;;;;;31.00;17.42;;;;;;;;;;5052168;28;20498;-69
2023/12/07 07:08:07;;;;;;;29.08;15.13;;;;;;;;;;5059448;28;20427;-69
2023/12/07 07:10:35;;;;;;;27.33;14.15;;;;;;;;;;5064102;28;20423;-69
2023/12/07 07:13:04;;;;;;;26.65;14.77;;;;;;;;;;5057908;28;20429;-69
2023/12/07 07:15:32;;;;;;;26.33;14.57;;;;;;;;;;5061110;28;20419;-69
2023/12/07 07:18:00;;;;;;;29.60;14.83;;;;;;;;;;5058890;28;20425;-69
2023/12/07 07:20:27;;;;;;;31.67;16.92;;;;;;;;;;5064202;28;20438;-70
2023/12/07 07:22:54;;;;;;;30.20;15.55;;;;;;;;;;5042659;28;20516;-69
2023/12/07 07:25:21;;;;;;;27.63;16.83;;;;;;;;;;5042265;28;20965;-69
2023/12/07 07:27:49;;;;;;;29.70;15.30;;;;;;;;;;5057411;28;20431;-69
2023/12/07 07:30:16;;;;;;;26.10;14.77;;;;;;;;;;5046372;28;20433;-71
2023/12/07 07:32:44;;;;;;;28.30;16.20;;;;;;;;;;5044362;28;20499;-69
2023/12/07 07:35:11;;;;;;;30.25;16.77;;;;;;;;;;5055874;28;20428;-69
2023/12/07 07:37:41;;;;;;;28.88;15.45;;;;;;;;;;5049117;28;20435;-69
2023/12/07 07:40:11;;;;;;;29.23;16.52;;;;;;;;;;5064716;28;20456;-70
2023/12/07 07:42:42;;;;;;;31.42;16.33;;;;;;;;;;5056558;28;20433;-69
2023/12/07 07:45:10;;;;;;;29.92;15.73;;;;;;;;;;5056405;28;20883;-69
2023/12/07 07:47:37;;;;;;;28.55;15.65;;;;;;;;;;5045521;28;20513;-69
2023/12/07 07:50:05;;;;;;;30.48;16.33;;;;;;;;;;5046661;28;20515;-69
2023/12/07 07:52:33;;;;;;;28.52;16.20;;;;;;;;;;5039906;28;20511;-69
2023/12/07 07:55:02;;;;;;;28.40;16.00;;;;;;;;;;5055969;28;20482;-69
2023/12/07 07:57:30;;;;;;;32.00;16.27;;;;;;;;;;5061970;28;20431;-69
2023/12/07 07:59:58;;;;;;;29.10;16.10;;;;;;;;;;5066107;28;20511;-70
2023/12/07 08:02:25;;;;;;;32.25;16.50;;;;;;;;;;5056347;28;20508;-69
2023/12/07 08:04:53;;;;;;;28.63;15.93;;;;;;;;;;5048274;28;20457;-69
2023/12/07 08:07:20;;;;;;;35.10;18.15;;;;;;;;;;5063509;28;20537;-69
2023/12/07 08:09:47;;;;;;;39.95;21.73;;;;;;;;;;5058742;28;20427;-69
2023/12/07 08:12:15;;;;;;;36.50;18.75;;;;;;;;;;5048071;28;20457;-69
2023/12/07 08:14:43;;;;;;;36.17;18.35;;;;;;;;;;5048147;28;20441;-69
2023/12/07 08:17:11;;;;;;;33.85;16.63;;;;;;;;;;5042366;28;20522;-69
2023/12/07 08:19:39;;;;;;;33.63;17.02;;;;;;;;;;5056426;28;20883;-69
2023/12/07 08:22:06;;;;;;;31.83;16.23;;;;;;;;;;5055829;28;20481;-69
2023/12/07 08:24:33;;;;;;;32.22;15.90;;;;;;;;;;5051498;28;20486;-70
2023/12/07 08:27:01;;;;;;;27.35;15.73;;;;;;;;;;5041326;28;20424;-69
2023/12/07 08:29:28;;;;;;;37.08;19.45;;;;;;;;;;5031983;28;20437;-69
2023/12/07 08:31:55;;;;;;;35.60;18.75;;;;;;;;;;5057162;28;21189;-69
2023/12/07 08:34:23;;;;;;;32.55;16.60;;;;;;;;;;5036640;28;20818;-69
2023/12/07 08:36:50;;;;;;;32.65;17.70;;;;;;;;;;5024657;28;20512;-70
2023/12/07 08:39:17;;;;;;;92.95;21.85;;;;;;;;;;5026981;28;20852;-69
2023/12/07 08:41:45;;;;;;;42.35;21.60;;;;;;;;;;5049866;28;20947;-70
2023/12/07 08:44:12;;;;;;;32.35;16.38;;;;;;;;;;5041685;28;20456;-70
2023/12/07 08:46:39;;;;;;;28.85;15.80;;;;;;;;;;5040499;28;20423;-69
2023/12/07 08:49:06;;;;;;;26.53;14.47;;;;;;;;;;5046592;28;20520;-69
2023/12/07 08:51:34;;;;;;;26.65;14.07;;;;;;;;;;5059401;28;20489;-69
2023/12/07 08:54:01;;;;;;;52.15;13.50;;;;;;;;;;5060335;28;20477;-69
2023/12/07 08:56:29;;;;;;;327.60;20.90;;;;;;;;;;5060663;28;20953;-69
2023/12/07 08:58:56;;;;;;;223.32;15.70;;;;;;;;;;5046938;28;20463;-69
2023/12/07 09:01:23;;;;;;;189.90;15.50;;;;;;;;;;5058396;28;20468;-69
2023/12/07 09:03:59;;;;;;;138.30;14.85;;;;;;;;;;5033854;28;20431;-69
2023/12/07 09:06:26;;;;;;;226.87;18.00;;;;;;;;;;5044252;28;20487;-69
2023/12/07 09:08:55;;;;;;;158.23;15.13;;;;;;;;;;5041064;28;20452;-69
2023/12/07 09:11:22;;;;;;;147.48;15.15;;;;;;;;;;5065539;28;20463;-69
2023/12/07 09:13:50;;;;;;;47.97;9.90;;;;;;;;;;5042368;28;20437;-69
2023/12/07 09:16:17;;;;;;;51.70;11.05;;;;;;;;;;5031625;28;20455;-69
2023/12/07 09:18:46;;;;;;;160.73;14.13;;;;;;;;;;5046336;28;20482;-69
2023/12/07 09:21:13;;;;;;;132.15;12.65;;;;;;;;;;5056907;28;20427;-69
2023/12/07 09:23:41;;;;;;;209.55;16.27;;;;;;;;;;5058283;28;20431;-69
2023/12/07 09:26:10;;;;;;;36.40;11.02;;;;;;;;;;5055727;28;20424;-68
2023/12/07 09:28:39;;;;;;;27.58;10.10;;;;;;;;;;5049781;28;20526;-69
2023/12/07 09:31:07;;;;;;;49.60;13.07;;;;;;;;;;5051255;28;20441;-68
2023/12/07 09:33:34;;;;;;;46.17;15.70;;;;;;;;;;5055760;28;20508;-68
2023/12/07 09:36:05;;;;;;;154.27;22.65;;;;;;;;;;5047504;28;20862;-69
2023/12/07 09:38:32;;;;;;;223.77;27.70;;;;;;;;;;5038971;28;20474;-69
2023/12/07 09:40:59;;;;;;;143.85;26.23;;;;;;;;;;5055769;28;20485;-69
2023/12/07 09:43:27;;;;;;;104.97;17.90;;;;;;;;;;5049474;28;20429;-69
2023/12/07 09:45:55;;;;;;;133.10;21.02;;;;;;;;;;5058351;28;20486;-69
2023/12/07 09:48:22;;;;;;;226.25;25.30;;;;;;;;;;5048098;28;20433;-69
2023/12/07 09:50:49;;;;;;;159.45;22.23;;;;;;;;;;5042976;28;20439;-69
2023/12/07 09:53:16;;;;;;;85.25;20.55;;;;;;;;;;5046887;28;20468;-69
2023/12/07 09:55:43;;;;;;;93.13;20.40;;;;;;;;;;5050831;28;20459;-68
2023/12/07 09:58:12;;;;;;;313.45;29.45;;;;;;;;;;5058661;28;20437;-69
2023/12/07 10:00:39;;;;;;;234.23;27.35;;;;;;;;;;5051649;28;20431;-68
2023/12/07 10:03:07;;;;;;;216.77;25.48;;;;;;;;;;5043594;28;20928;-69
2023/12/07 10:05:54;;;;;;;251.68;27.77;;;;;;;;;;5050081;28;20459;-68
2023/12/07 10:08:30;;;;;;;299.27;28.95;;;;;;;;;;5036050;28;20942;-68
2023/12/07 10:11:15;;;;;;;210.95;26.77;;;;;;;;;;5038730;28;20434;-69
2023/12/07 10:13:42;;;;;;;101.90;21.70;;;;;;;;;;5052183;28;20430;-68
2023/12/07 10:16:15;;;;;;;250.90;28.05;;;;;;;;;;5055404;28;20432;-68
2023/12/07 10:18:43;;;;;;;380.27;33.63;;;;;;;;;;5036886;28;20971;-68
2023/12/07 10:21:12;;;;;;;216.20;27.10;;;;;;;;;;5052464;28;20429;-68
2023/12/07 10:23:43;;;;;;;184.98;25.83;;;;;;;;;;5052121;28;20464;-68
2023/12/07 10:26:11;;;;;;;321.53;29.97;;;;;;;;;;5046538;28;20516;-68
2023/12/07 10:28:39;;;;;;;221.32;26.15;;;;;;;;;;5060188;28;20504;-68
2023/12/07 10:31:10;;;;;;;141.45;23.52;;;;;;;;;;5050467;28;20465;-68
2023/12/07 10:33:38;;;;;;;95.15;22.25;;;;;;;;;;5057092;28;20429;-68
2023/12/07 10:36:06;;;;;;;84.43;18.33;;;;;;;;;;5054714;28;20566;-68
2023/12/07 10:38:33;;;;;;;77.68;18.60;;;;;;;;;;5046141;28;20476;-68
2023/12/07 10:41:06;;;;;;;62.92;17.98;;;;;;;;;;5068457;28;20511;-69
2023/12/07 10:43:36;;;;;;;120.43;20.80;;;;;;;;;;5056635;28;20921;-68
2023/12/07 10:46:07;;;;;;;132.48;21.80;;;;;;;;;;5048297;28;20512;-68
2023/12/07 10:48:35;;;;;;;61.85;18.05;;;;;;;;;;5048663;28;20815;-68
2023/12/07 10:51:10;;;;;;;112.03;21.67;;;;;;;;;;5055703;28;20488;-68
2023/12/07 10:53:43;;;;;;;126.75;22.20;;;;;;;;;;5053641;28;20435;-68
2023/12/07 10:56:13;;;;;;;82.95;20.58;;;;;;;;;;5058362;28;20909;-68
2023/12/07 10:58:42;;;;;;;85.07;18.90;;;;;;;;;;5059310;28;20427;-68
2023/12/07 11:01:09;;;;;;;60.22;17.92;;;;;;;;;;5029810;28;20429;-68
2023/12/07 11:03:37;;;;;;;33.53;16.13;;;;;;;;;;5048730;28;20429;-67
2023/12/07 11:06:05;;;;;;;56.13;17.40;;;;;;;;;;5066290;28;20427;-67
2023/12/07 11:08:37;;;;;;;40.72;17.30;;;;;;;;;;5060081;28;21024;-68
2023/12/07 11:11:27;;;;;;;33.50;15.63;;;;;;;;;;5052350;28;20427;-68
2023/12/07 11:13:58;;;;;;;37.87;16.50;;;;;;;;;;5056366;28;20578;-68
2023/12/07 11:16:31;;;;;;;42.67;16.65;;;;;;;;;;5036470;28;20431;-67
2023/12/07 11:19:02;;;;;;;30.95;15.50;;;;;;;;;;5022261;28;20425;-67
2023/12/07 11:21:29;;;;;;;30.80;16.00;;;;;;;;;;5048535;28;20505;-67
2023/12/07 11:23:57;;;;;;;32.20;17.38;;;;;;;;;;5038073;28;20788;-69
2023/12/07 11:26:24;;;;;;;29.02;16.42;;;;;;;;;;5039762;28;20421;-68
2023/12/07 11:28:52;;;;;;;31.65;16.45;;;;;;;;;;5037205;28;20438;-68
2023/12/07 11:31:20;;;;;;;30.27;16.50;;;;;;;;;;5041641;28;20425;-67
2023/12/07 11:33:47;;;;;;;27.65;15.95;;;;;;;;;;5055215;28;20489;-67
2023/12/07 11:36:15;;;;;;;30.35;15.90;;;;;;;;;;5068151;28;20431;-67
2023/12/07 11:39:02;;;;;;;34.63;17.05;;;;;;;;;;5061623;28;20973;-67
2023/12/07 11:41:30;;;;;;;45.28;19.88;;;;;;;;;;5052216;28;20925;-67
2023/12/07 11:44:00;;;;;;;27.80;15.70;;;;;;;;;;5068330;28;20802;-67
2023/12/07 11:46:27;;;;;;;33.20;16.20;;;;;;;;;;5053164;28;20438;-67
2023/12/07 11:48:54;;;;;;;33.38;17.05;;;;;;;;;;5047490;28;20623;-67
2023/12/07 11:51:22;;;;;;;31.58;16.65;;;;;;;;;;5053123;28;20581;-67
2023/12/07 11:53:50;;;;;;;44.70;18.13;;;;;;;;;;5062549;28;20511;-67
2023/12/07 11:56:21;;;;;;;43.75;17.45;;;;;;;;;;5017366;28;20439;-67
2023/12/07 11:58:49;;;;;;;43.30;18.08;;;;;;;;;;5039380;28;20439;-67
2023/12/07 12:01:17;;;;;;;38.85;16.60;;;;;;;;;;5056953;28;20510;-67
2023/12/07 12:03:44;;;;;;;42.47;17.10;;;;;;;;;;5058340;28;20425;-67
2023/12/07 12:06:12;;;;;;;39.67;18.02;;;;;;;;;;5056072;28;20433;-67
2023/12/07 12:08:42;;;;;;;39.35;16.55;;;;;;;;;;5054331;28;20501;-67
2023/12/07 12:11:09;;;;;;;41.20;17.42;;;;;;;;;;5058425;28;21040;-67
2023/12/07 12:13:37;;;;;;;48.77;17.43;;;;;;;;;;5051450;28;20441;-67
2023/12/07 12:16:05;;;;;;;43.85;16.45;;;;;;;;;;5051211;28;20900;-67
2023/12/07 12:18:34;;;;;;;45.17;16.67;;;;;;;;;;5053682;28;20525;-67
2023/12/07 12:21:02;;;;;;;48.53;16.88;;;;;;;;;;5033334;28;20497;-68
2023/12/07 12:23:29;;;;;;;51.15;16.80;;;;;;;;;;5043828;28;20452;-67
2023/12/07 12:25:57;;;;;;;44.13;17.17;;;;;;;;;;5046457;28;20433;-67
2023/12/07 12:28:25;;;;;;;43.95;17.33;;;;;;;;;;5043737;28;20899;-67
2023/12/07 12:30:52;;;;;;;37.85;17.08;;;;;;;;;;5056643;28;20427;-67
2023/12/07 12:33:20;;;;;;;39.67;17.30;;;;;;;;;;5051903;28;20432;-67
2023/12/07 12:35:47;;;;;;;46.03;16.92;;;;;;;;;;5062987;28;20473;-67
2023/12/07 12:38:14;;;;;;;35.78;16.15;;;;;;;;;;5043119;28;21034;-67
2023/12/07 12:40:54;;;;;;;46.60;16.80;;;;;;;;;;5056284;28;20784;-67
2023/12/07 12:43:21;;;;;;;41.22;17.67;;;;;;;;;;5056095;28;20475;-67
2023/12/07 12:45:50;;;;;;;44.28;17.20;;;;;;;;;;5063042;28;20518;-67
2023/12/07 12:48:34;;;;;;;41.30;16.67;;;;;;;;;;5049819;28;20871;-67
2023/12/07 12:51:14;;;;;;;40.38;16.40;;;;;;;;;;5055072;28;20438;-67
2023/12/07 12:53:42;;;;;;;40.53;16.75;;;;;;;;;;5045929;28;20437;-67
2023/12/07 12:56:10;;;;;;;35.15;16.45;;;;;;;;;;5050666;28;20428;-67
2023/12/07 12:58:37;;;;;;;37.75;16.75;;;;;;;;;;5045822;28;20516;-68
2023/12/07 13:01:06;;;;;;;37.20;16.67;;;;;;;;;;5059119;28;20431;-68
2023/12/07 13:03:34;;;;;;;37.97;16.55;;;;;;;;;;5046297;28;20427;-67
2023/12/07 13:06:01;;;;;;;36.67;16.85;;;;;;;;;;5056475;28;20432;-67
2023/12/07 13:08:33;;;;;;;38.30;16.27;;;;;;;;;;5051489;28;20439;-68
2023/12/07 13:11:00;;;;;;;35.97;15.48;;;;;;;;;;5066266;28;20466;-67
2023/12/07 13:13:28;;;;;;;38.28;16.52;;;;;;;;;;5043524;28;20462;-68
2023/12/07 13:15:55;;;;;;;37.45;16.15;;;;;;;;;;5047065;28;20480;-67
2023/12/07 13:18:22;;;;;;;38.50;15.43;;;;;;;;;;5050294;28;20506;-68
2023/12/07 13:20:49;;;;;;;31.67;15.73;;;;;;;;;;5056150;28;20964;-68
2023/12/07 13:23:22;;;;;;;29.35;13.98;;;;;;;;;;5049667;28;20702;-68
2023/12/07 13:25:49;;;;;;;34.20;16.20;;;;;;;;;;5047378;28;20464;-67
2023/12/07 13:28:17;;;;;;;37.22;16.80;;;;;;;;;;5028397;28;20490;-68
2023/12/07 13:30:45;;;;;;;37.35;17.15;;;;;;;;;;5063122;28;20431;-68
2023/12/07 13:33:12;;;;;;;38.47;17.02;;;;;;;;;;5055941;28;20871;-68
2023/12/07 13:35:54;;;;;;;35.42;16.02;;;;;;;;;;5053634;28;20437;-68
2023/12/07 13:38:23;;;;;;;31.88;15.30;;;;;;;;;;5048201;28;20433;-68
2023/12/07 13:40:50;;;;;;;32.00;15.50;;;;;;;;;;5063879;28;20423;-68
2023/12/07 13:43:18;;;;;;;33.63;15.52;;;;;;;;;;5059922;28;20825;-68
2023/12/07 13:45:45;;;;;;;29.42;14.57;;;;;;;;;;5029685;28;20486;-68
2023/12/07 13:48:12;;;;;;;30.58;14.77;;;;;;;;;;5057075;28;20533;-68
2023/12/07 13:50:41;;;;;;;31.00;15.33;;;;;;;;;;5048841;28;20427;-68
2023/12/07 13:53:10;;;;;;;33.50;15.70;;;;;;;;;;5055559;28;20502;-67
2023/12/07 13:55:39;;;;;;;38.40;16.88;;;;;;;;;;5038604;28;20471;-67
2023/12/07 13:58:12;;;;;;;37.83;17.45;;;;;;;;;;5060038;28;25326;-67
2023/12/07 14:00:39;;;;;;;43.03;18.02;;;;;;;;;;5037581;28;20429;-68
2023/12/07 14:03:06;;;;;;;33.25;15.00;;;;;;;;;;5049622;28;20468;-67
2023/12/07 14:05:34;;;;;;;46.50;16.55;;;;;;;;;;5041634;28;20508;-67
2023/12/07 14:08:02;;;;;;;31.93;14.43;;;;;;;;;;5041771;28;20506;-67
2023/12/07 14:10:30;;;;;;;31.15;14.57;;;;;;;;;;5036359;28;20543;-67
2023/12/07 14:12:58;;;;;;;39.72;16.25;;;;;;;;;;5060726;28;20442;-67
2023/12/07 14:15:26;;;;;;;101.87;41.27;;;;;;;;;;5042685;28;20446;-67
2023/12/07 14:18:08;;;;;;;41.45;18.33;;;;;;;;;;5045070;28;20440;-68
2023/12/07 14:20:36;;;;;;;31.13;15.55;;;;;;;;;;5042383;28;20444;-68
2023/12/07 14:23:23;;;;;;;33.35;15.70;;;;;;;;;;5039695;28;21123;-67